Time;durP1;ratioP1;P1;durP2;ratioP2;P2;SDS_P1;SDS_P2;PMS_P1;PMS_P2;Temp;Humidity;BMP_temperature;BMP_pressure;BME280_temperature;BME280_humidity;BME280_pressure;Samples;Min_cycle;Max_cycle;Signal;HPM_P1;HPM_P2
2023/03/22 00:01:14;;;;;;;5.13;4.50;;;19.20;46.80;;;;;;5039049;28;20939;-45
2023/03/22 00:03:40;;;;;;;5.17;4.17;;;19.20;46.70;;;;;;5041681;28;20287;-45
2023/03/22 00:06:06;;;;;;;4.73;4.20;;;19.20;46.70;;;;;;5035928;28;20538;-45
2023/03/22 00:08:32;;;;;;;6.10;4.77;;;19.10;46.50;;;;;;5042892;28;20448;-45
2023/03/22 00:10:57;;;;;;;6.67;5.37;;;19.10;46.90;;;;;;5046372;28;20439;-47
2023/03/22 00:13:23;;;;;;;5.20;4.47;;;19.00;47.30;;;;;;5045323;28;20192;-45
2023/03/22 00:15:49;;;;;;;4.73;4.33;;;18.90;47.40;;;;;;5045945;28;20220;-45
2023/03/22 00:18:15;;;;;;;4.70;4.30;;;18.90;47.10;;;;;;5038785;28;20661;-44
2023/03/22 00:20:55;;;;;;;4.43;4.03;;;18.90;47.40;;;;;;5041909;28;20257;-46
2023/03/22 00:23:21;;;;;;;5.33;4.30;;;18.90;47.30;;;;;;5037028;28;20588;-44
2023/03/22 00:25:47;;;;;;;4.73;4.33;;;18.80;47.20;;;;;;5043370;28;21053;-46
2023/03/22 00:28:15;;;;;;;6.73;4.17;;;18.80;47.40;;;;;;5042625;28;20446;-44
2023/03/22 00:30:41;;;;;;;5.30;4.47;;;18.70;47.90;;;;;;5048357;28;20453;-45
2023/03/22 00:33:07;;;;;;;5.10;4.30;;;18.60;48.40;;;;;;5048870;28;20848;-45
2023/03/22 00:35:33;;;;;;;4.60;4.20;;;18.60;48.30;;;;;;5043210;28;20451;-45
2023/03/22 00:38:12;;;;;;;4.43;3.53;;;18.60;48.30;;;;;;5037688;28;20484;-46
2023/03/22 00:40:38;;;;;;;5.33;3.33;;;18.60;48.30;;;;;;5048416;28;20218;-45
2023/03/22 00:43:04;;;;;;;4.03;3.13;;;18.50;48.20;;;;;;5041242;28;20438;-45
2023/03/22 00:45:29;;;;;;;7.37;4.17;;;18.50;48.30;;;;;;5042642;28;20478;-44
2023/03/22 00:47:55;;;;;;;3.60;3.20;;;18.60;48.50;;;;;;5050857;28;20204;-44
2023/03/22 00:50:21;;;;;;;5.47;3.50;;;18.60;48.20;;;;;;5050742;28;20185;-46
2023/03/22 00:52:46;;;;;;;5.40;3.03;;;18.60;48.00;;;;;;5037284;28;20617;-44
2023/03/22 00:55:12;;;;;;;3.43;3.07;;;18.60;48.40;;;;;;5041194;28;20228;-44
2023/03/22 00:57:37;;;;;;;5.10;3.83;;;18.60;47.40;;;;;;5033830;28;21719;-45
2023/03/22 01:00:12;;;;;;;4.30;3.90;;;18.60;47.60;;;;;;5045908;28;20390;-45
2023/03/22 01:02:38;;;;;;;4.67;4.23;;;18.60;47.40;;;;;;5047790;28;20192;-47
2023/03/22 01:05:05;;;;;;;6.43;3.50;;;18.50;47.60;;;;;;5040450;28;20494;-44
2023/03/22 01:07:31;;;;;;;5.40;4.13;;;18.50;47.80;;;;;;5046669;28;20537;-45
2023/03/22 01:09:56;;;;;;;6.40;4.20;;;18.50;47.90;;;;;;5046287;28;20451;-44
2023/03/22 01:12:22;;;;;;;4.30;3.67;;;18.50;48.00;;;;;;5037625;28;20339;-45
2023/03/22 01:14:48;;;;;;;4.87;4.00;;;18.50;47.90;;;;;;5046888;28;20189;-44
2023/03/22 01:17:13;;;;;;;4.03;3.43;;;18.40;48.20;;;;;;5040836;28;20201;-44
2023/03/22 01:19:39;;;;;;;6.27;3.63;;;18.30;47.70;;;;;;5047379;28;20197;-45
2023/03/22 01:22:06;;;;;;;5.43;3.77;;;18.20;48.40;;;;;;5041417;28;20200;-47
2023/03/22 01:24:32;;;;;;;5.77;3.80;;;18.20;48.40;;;;;;5046237;28;20649;-45
2023/03/22 01:26:58;;;;;;;4.23;3.70;;;18.00;48.40;;;;;;5038617;28;20482;-45
2023/03/22 01:29:24;;;;;;;6.00;3.80;;;17.90;48.80;;;;;;5049621;28;20869;-44
2023/03/22 01:31:50;;;;;;;4.40;4.00;;;17.80;49.00;;;;;;5046808;28;20444;-45
2023/03/22 01:34:16;;;;;;;6.30;5.70;;;17.70;48.80;;;;;;5038826;28;20799;-44
2023/03/22 01:36:41;;;;;;;7.77;4.63;;;17.60;49.50;;;;;;5047313;28;20185;-44
2023/03/22 01:39:07;;;;;;;7.70;4.20;;;17.50;49.70;;;;;;5051942;28;20200;-45
2023/03/22 01:41:33;;;;;;;5.63;4.20;;;17.40;49.70;;;;;;5044279;28;20275;-44
2023/03/22 01:44:11;;;;;;;5.30;4.10;;;17.30;49.90;;;;;;5047171;28;20224;-45
2023/03/22 01:46:37;;;;;;;5.47;3.77;;;17.30;50.20;;;;;;5045326;28;20447;-44
2023/03/22 01:49:05;;;;;;;5.70;5.03;;;17.20;50.40;;;;;;5038698;28;20493;-44
2023/03/22 01:51:32;;;;;;;8.13;4.27;;;17.10;50.50;;;;;;5036944;28;20439;-45
2023/03/22 01:54:05;;;;;;;3.77;3.40;;;17.10;50.50;;;;;;5039099;28;21004;-45
2023/03/22 01:56:35;;;;;;;4.27;3.87;;;17.10;50.60;;;;;;5038576;28;20455;-46
2023/03/22 01:59:02;;;;;;;4.90;4.40;;;17.10;50.40;;;;;;5045109;28;20493;-49
2023/03/22 02:01:29;;;;;;;4.77;4.27;;;17.20;50.10;;;;;;5036423;28;20435;-45
2023/03/22 02:04:08;;;;;;;6.63;3.90;;;16.90;50.80;;;;;;5041769;28;20475;-45
2023/03/22 02:06:37;;;;;;;9.53;3.77;;;16.90;50.80;;;;;;5043952;28;20435;-46
2023/03/22 02:09:08;;;;;;;7.40;3.50;;;16.90;50.80;;;;;;5044474;28;20508;-44
2023/03/22 02:11:40;;;;;;;6.63;3.80;;;16.80;50.50;;;;;;5042314;28;20472;-44
2023/03/22 02:14:24;;;;;;;4.17;3.77;;;16.50;51.10;;;;;;5042137;28;20443;-47
2023/03/22 02:17:11;;;;;;;3.57;3.27;;;16.40;51.70;;;;;;5045731;28;20860;-44
2023/03/22 02:19:52;;;;;;;6.30;3.40;;;16.40;51.90;;;;;;5044373;28;20499;-46
2023/03/22 02:22:37;;;;;;;4.07;3.67;;;16.50;51.80;;;;;;5034103;28;20458;-44
2023/03/22 02:25:32;;;;;;;4.53;4.10;;;16.50;51.70;;;;;;5040288;28;20558;-47
2023/03/22 02:28:13;;;;;;;4.87;4.40;;;16.70;51.10;;;;;;5019316;28;20451;-45
2023/03/22 02:30:53;;;;;;;5.30;4.03;;;16.70;50.80;;;;;;5047484;28;20853;-45
2023/03/22 02:33:40;;;;;;;6.17;4.40;;;16.80;50.70;;;;;;5037445;28;20447;-44
2023/03/22 02:36:23;;;;;;;4.93;3.50;;;16.90;50.40;;;;;;5039387;28;20454;-45
2023/03/22 02:38:57;;;;;;;4.87;4.03;;;16.70;50.90;;;;;;5036329;28;20455;-44
2023/03/22 02:41:59;;;;;;;5.20;4.20;;;16.70;51.10;;;;;;5039125;28;20447;-45
2023/03/22 02:44:46;;;;;;;7.40;4.33;;;16.80;50.60;;;;;;5033933;28;20483;-44
2023/03/22 02:47:40;;;;;;;4.20;3.80;;;16.80;50.80;;;;;;5039061;28;20504;-44
2023/03/22 02:50:29;;;;;;;5.30;4.43;;;16.70;50.60;;;;;;5043752;28;20454;-46
2023/03/22 02:53:35;;;;;;;6.20;3.90;;;16.80;50.80;;;;;;5046472;28;20454;-46
2023/03/22 02:56:12;;;;;;;4.20;3.80;;;16.60;50.80;;;;;;5037420;28;20597;-44
2023/03/22 02:58:44;;;;;;;6.03;3.90;;;16.70;50.90;;;;;;5047818;28;20481;-47
2023/03/22 03:01:27;;;;;;;6.33;4.40;;;16.50;51.20;;;;;;5042699;28;20482;-47
2023/03/22 03:03:58;;;;;;;6.37;4.13;;;16.50;51.10;;;;;;5042010;28;20483;-44
2023/03/22 03:06:27;;;;;;;4.13;3.73;;;16.40;51.40;;;;;;5043511;28;20442;-44
2023/03/22 03:08:56;;;;;;;4.53;4.13;;;16.30;51.60;;;;;;5043578;28;20447;-44
2023/03/22 03:11:23;;;;;;;8.00;4.63;;;16.30;51.70;;;;;;5041551;28;20447;-45
2023/03/22 03:13:49;;;;;;;4.13;3.83;;;16.40;51.30;;;;;;5040559;28;20462;-45
2023/03/22 03:16:19;;;;;;;5.70;3.60;;;16.50;51.00;;;;;;5042059;28;20448;-45
2023/03/22 03:18:57;;;;;;;4.63;4.20;;;16.40;51.20;;;;;;5044102;28;20846;-45
2023/03/22 03:21:55;;;;;;;4.40;3.70;;;16.30;51.50;;;;;;5041109;28;20451;-49
2023/03/22 03:24:37;;;;;;;5.77;3.90;;;16.30;51.50;;;;;;5023088;28;20502;-44
2023/03/22 03:27:35;;;;;;;4.50;3.87;;;16.30;51.70;;;;;;5042456;28;20447;-44
2023/03/22 03:30:15;;;;;;;4.10;3.80;;;16.10;51.90;;;;;;5040907;28;20455;-45
2023/03/22 03:32:58;;;;;;;4.73;4.30;;;16.00;52.50;;;;;;5045828;28;20890;-46
2023/03/22 03:35:31;;;;;;;5.10;3.50;;;16.10;52.40;;;;;;5037575;28;20439;-44
2023/03/22 03:38:07;;;;;;;6.40;4.00;;;16.20;52.10;;;;;;5043129;28;20446;-46
2023/03/22 03:40:38;;;;;;;4.90;3.77;;;15.90;52.50;;;;;;5045865;28;20803;-45
2023/03/22 03:43:05;;;;;;;5.77;3.63;;;15.60;52.80;;;;;;5041284;28;20440;-46
2023/03/22 03:45:31;;;;;;;5.93;4.07;;;15.70;53.40;;;;;;5039643;28;20518;-44
2023/03/22 03:48:01;;;;;;;6.17;4.13;;;15.80;53.00;;;;;;5041212;28;20435;-44
2023/03/22 03:50:27;;;;;;;4.60;4.03;;;16.00;52.50;;;;;;5042457;28;20466;-48
2023/03/22 03:52:54;;;;;;;9.50;4.07;;;16.10;51.80;;;;;;5044703;28;20448;-44
2023/03/22 03:55:20;;;;;;;6.60;3.83;;;16.20;51.60;;;;;;5044827;28;21032;-46
2023/03/22 03:57:46;;;;;;;3.93;3.60;;;16.20;51.50;;;;;;5041003;28;20451;-44
2023/03/22 04:00:15;;;;;;;4.83;4.00;;;16.20;51.60;;;;;;5040209;28;20444;-44
2023/03/22 04:02:42;;;;;;;4.43;3.80;;;16.20;51.60;;;;;;5050270;28;20200;-44
2023/03/22 04:05:08;;;;;;;4.40;3.70;;;16.20;51.60;;;;;;5045111;28;20487;-44
2023/03/22 04:07:34;;;;;;;3.67;3.30;;;15.80;52.10;;;;;;5046062;28;20443;-44
2023/03/22 04:10:00;;;;;;;4.00;3.33;;;15.80;53.20;;;;;;5051970;28;20438;-45
2023/03/22 04:12:25;;;;;;;5.00;4.13;;;15.90;52.30;;;;;;5048060;28;20443;-44
2023/03/22 04:14:51;;;;;;;3.63;3.33;;;15.90;52.10;;;;;;5042499;28;20262;-44
2023/03/22 04:17:17;;;;;;;4.87;4.20;;;15.80;52.20;;;;;;5050934;28;20203;-44
2023/03/22 04:19:44;;;;;;;5.70;3.43;;;15.90;52.00;;;;;;5053202;28;20199;-45
2023/03/22 04:22:13;;;;;;;3.90;3.60;;;15.90;51.50;;;;;;5047045;28;20211;-44
2023/03/22 04:24:40;;;;;;;5.97;4.10;;;15.80;51.50;;;;;;5048683;28;20487;-44
2023/03/22 04:27:07;;;;;;;4.90;4.50;;;15.80;51.80;;;;;;5044520;28;20443;-44
2023/03/22 04:29:35;;;;;;;4.27;3.23;;;15.70;51.80;;;;;;5042024;28;20480;-45
2023/03/22 04:32:04;;;;;;;4.87;3.80;;;15.60;52.40;;;;;;5048861;28;20801;-44
2023/03/22 04:34:30;;;;;;;5.80;4.77;;;15.60;52.50;;;;;;5039874;28;20447;-46
2023/03/22 04:36:56;;;;;;;6.33;3.60;;;15.70;52.40;;;;;;5051430;28;20449;-44
2023/03/22 04:39:23;;;;;;;3.87;3.50;;;15.70;51.70;;;;;;5058584;28;20964;-44
2023/03/22 04:41:48;;;;;;;4.43;3.80;;;15.70;51.30;;;;;;5045720;28;21084;-44
2023/03/22 04:44:14;;;;;;;4.90;3.70;;;15.40;51.40;;;;;;5041759;28;20473;-46
2023/03/22 04:46:41;;;;;;;4.57;4.10;;;15.10;52.00;;;;;;5038934;28;20254;-44
2023/03/22 04:49:07;;;;;;;3.67;3.37;;;14.90;52.70;;;;;;5045605;28;20296;-44
2023/03/22 04:51:32;;;;;;;4.17;3.43;;;14.70;53.00;;;;;;5040657;28;20966;-44
2023/03/22 04:53:59;;;;;;;4.30;3.97;;;14.50;53.40;;;;;;5041829;28;20197;-45
2023/03/22 04:56:24;;;;;;;4.53;4.13;;;14.40;53.50;;;;;;5041565;28;20205;-43
2023/03/22 04:58:50;;;;;;;3.77;3.33;;;14.30;53.80;;;;;;5044732;28;20439;-43
2023/03/22 05:01:17;;;;;;;4.83;3.50;;;14.30;54.00;;;;;;5045220;28;20243;-44
2023/03/22 05:03:44;;;;;;;4.30;3.70;;;14.30;54.00;;;;;;5049805;28;20205;-44
2023/03/22 05:06:10;;;;;;;6.27;3.80;;;14.20;54.00;;;;;;5044237;28;20442;-45
2023/03/22 05:08:36;;;;;;;4.73;3.40;;;14.00;54.60;;;;;;5038104;28;20440;-43
2023/03/22 05:11:15;;;;;;;5.60;4.70;;;13.60;55.40;;;;;;5044635;28;20469;-43
2023/03/22 05:13:41;;;;;;;4.43;4.03;;;13.50;56.10;;;;;;5041888;28;20509;-45
2023/03/22 05:16:08;;;;;;;5.60;3.90;;;13.20;56.80;;;;;;5042335;28;20447;-44
2023/03/22 05:18:36;;;;;;;5.90;4.40;;;13.20;57.10;;;;;;5046580;28;20789;-45
2023/03/22 05:21:05;;;;;;;5.00;4.50;;;13.00;57.50;;;;;;5049735;28;20437;-44
2023/03/22 05:23:31;;;;;;;4.20;3.80;;;13.00;57.80;;;;;;5033611;28;21400;-44
2023/03/22 05:25:57;;;;;;;4.57;4.00;;;12.90;57.70;;;;;;5045253;28;20489;-44
2023/03/22 05:28:23;;;;;;;5.13;4.10;;;12.80;58.00;;;;;;5038546;28;20192;-44
2023/03/22 05:30:50;;;;;;;3.97;3.63;;;12.90;57.90;;;;;;5046257;28;20204;-44
2023/03/22 05:33:20;;;;;;;5.97;3.70;;;12.90;58.00;;;;;;5042475;28;20550;-43
2023/03/22 05:35:46;;;;;;;4.83;3.70;;;13.10;57.70;;;;;;5038652;28;20447;-43
2023/03/22 05:38:11;;;;;;;6.90;4.67;;;13.20;57.30;;;;;;5047852;28;20447;-44
2023/03/22 05:40:37;;;;;;;7.13;4.33;;;13.30;57.10;;;;;;5038071;28;20189;-43
2023/03/22 05:43:02;;;;;;;4.13;3.73;;;13.10;57.40;;;;;;5040592;28;20200;-43
2023/03/22 05:45:28;;;;;;;5.30;3.50;;;13.10;57.30;;;;;;5041180;28;20232;-44
2023/03/22 05:47:54;;;;;;;3.57;3.33;;;13.20;57.20;;;;;;5040807;28;20635;-43
2023/03/22 05:50:22;;;;;;;4.87;3.97;;;13.40;56.90;;;;;;5042969;28;20189;-43
2023/03/22 05:52:48;;;;;;;4.17;3.77;;;13.40;56.50;;;;;;5044263;28;20558;-44
2023/03/22 05:55:16;;;;;;;5.33;4.60;;;13.50;56.50;;;;;;5010733;28;1108092;-44
2023/03/22 05:57:43;;;;;;;4.07;3.67;;;13.60;56.20;;;;;;5050287;28;20455;-43
2023/03/22 06:00:12;;;;;;;7.30;4.13;;;13.70;56.00;;;;;;5048274;28;20443;-44
2023/03/22 06:02:39;;;;;;;4.13;3.83;;;13.80;55.90;;;;;;5043647;28;20446;-45
2023/03/22 06:05:05;;;;;;;6.30;4.30;;;13.80;55.70;;;;;;5042537;28;20606;-43
2023/03/22 06:07:31;;;;;;;4.73;3.33;;;13.80;55.90;;;;;;5047632;28;20445;-44
2023/03/22 06:09:57;;;;;;;5.10;3.67;;;13.70;56.20;;;;;;5047852;28;20451;-43
2023/03/22 06:12:24;;;;;;;4.63;4.23;;;13.70;56.20;;;;;;5046816;28;20200;-43
2023/03/22 06:14:50;;;;;;;6.60;4.60;;;13.50;56.40;;;;;;5031526;28;20197;-43
2023/03/22 06:17:16;;;;;;;8.60;4.17;;;13.60;56.90;;;;;;5039671;28;20497;-43
2023/03/22 06:19:42;;;;;;;9.27;4.43;;;13.80;57.60;;;;;;5034671;28;20854;-44
2023/03/22 06:22:07;;;;;;;5.00;4.50;;;14.00;56.60;;;;;;5032231;28;20272;-44
2023/03/22 06:24:33;;;;;;;7.50;4.93;;;14.10;56.60;;;;;;5036838;28;20213;-43
2023/03/22 06:26:59;;;;;;;5.47;4.27;;;14.40;56.00;;;;;;5033484;28;20209;-44
2023/03/22 06:29:24;;;;;;;4.20;3.80;;;14.60;55.70;;;;;;5033759;28;20193;-44
2023/03/22 06:31:50;;;;;;;5.43;4.00;;;14.90;56.00;;;;;;5044045;28;20615;-44
2023/03/22 06:34:15;;;;;;;4.67;3.97;;;15.10;55.00;;;;;;5043617;28;20307;-45
2023/03/22 06:36:41;;;;;;;4.13;3.83;;;15.40;54.70;;;;;;5039775;28;20197;-45
2023/03/22 06:39:07;;;;;;;4.60;3.80;;;15.60;54.00;;;;;;5047730;28;20238;-44
2023/03/22 06:41:33;;;;;;;4.37;3.97;;;15.80;52.90;;;;;;5042964;28;20672;-44
2023/03/22 06:44:00;;;;;;;4.30;3.90;;;16.00;52.80;;;;;;5044360;28;20532;-44
2023/03/22 06:46:25;;;;;;;4.87;4.00;;;16.20;52.40;;;;;;5036387;28;20500;-43
2023/03/22 06:48:51;;;;;;;6.73;4.37;;;16.40;51.80;;;;;;5039499;28;20484;-44
2023/03/22 06:51:16;;;;;;;5.83;4.77;;;16.70;51.50;;;;;;5042767;28;20193;-44
2023/03/22 06:53:42;;;;;;;4.87;4.10;;;16.90;51.10;;;;;;5037866;28;20196;-44
2023/03/22 06:56:08;;;;;;;4.30;3.40;;;17.10;50.60;;;;;;5042867;28;20586;-44
2023/03/22 06:58:34;;;;;;;6.27;4.40;;;17.20;50.30;;;;;;5040118;28;20192;-44
2023/03/22 07:00:59;;;;;;;5.63;3.50;;;17.40;50.00;;;;;;5040996;28;20554;-45
2023/03/22 07:03:25;;;;;;;3.73;3.40;;;17.60;49.70;;;;;;5041914;28;20670;-44
2023/03/22 07:05:51;;;;;;;8.00;4.00;;;17.70;49.10;;;;;;5048896;28;20232;-45
2023/03/22 07:08:16;;;;;;;7.20;4.07;;;17.90;48.90;;;;;;5049735;28;20211;-45
2023/03/22 07:10:42;;;;;;;8.03;3.60;;;18.00;48.50;;;;;;5038889;28;20433;-44
2023/03/22 07:13:08;;;;;;;4.73;3.80;;;18.20;48.00;;;;;;5043060;28;20299;-44
2023/03/22 07:15:34;;;;;;;5.47;3.83;;;18.40;47.70;;;;;;5048284;28;20438;-48
2023/03/22 07:18:00;;;;;;;9.33;3.90;;;18.20;47.20;;;;;;5041773;28;20438;-44
2023/03/22 07:20:26;;;;;;;4.30;3.90;;;18.30;47.80;;;;;;5046341;28;20648;-44
2023/03/22 07:22:52;;;;;;;3.03;2.83;;;18.60;47.50;;;;;;5038801;28;20454;-44
2023/03/22 07:25:18;;;;;;;3.60;3.30;;;18.80;47.00;;;;;;5041366;28;20220;-47
2023/03/22 07:27:44;;;;;;;4.90;3.37;;;19.00;46.70;;;;;;5032139;28;20204;-44
2023/03/22 07:30:10;;;;;;;7.50;2.97;;;19.10;45.90;;;;;;5038651;28;21186;-48
2023/03/22 07:32:37;;;;;;;4.77;3.53;;;19.10;45.90;;;;;;5042094;28;20292;-44
2023/03/22 07:35:03;;;;;;;3.70;3.37;;;19.40;45.60;;;;;;5039657;28;20539;-44
2023/03/22 07:37:29;;;;;;;5.13;3.27;;;19.60;45.30;;;;;;5046591;28;20565;-45
2023/03/22 07:39:54;;;;;;;3.67;3.37;;;19.70;45.00;;;;;;5038020;28;20591;-44
2023/03/22 07:42:20;;;;;;;6.60;2.90;;;19.90;44.90;;;;;;5045110;28;20192;-44
2023/03/22 07:44:46;;;;;;;2.80;2.50;;;20.10;44.00;;;;;;5042633;28;20228;-43
2023/03/22 07:47:11;;;;;;;5.13;2.43;;;20.20;43.10;;;;;;5041479;28;20272;-45
2023/03/22 07:49:37;;;;;;;2.70;2.50;;;20.30;42.00;;;;;;5049524;28;20196;-46
2023/03/22 07:52:03;;;;;;;3.20;2.47;;;20.30;41.50;;;;;;5048578;28;20443;-44
2023/03/22 07:54:29;;;;;;;3.83;3.47;;;20.50;41.60;;;;;;5051637;28;20244;-49
2023/03/22 07:56:55;;;;;;;3.07;2.43;;;20.50;41.60;;;;;;5045561;28;20269;-49
2023/03/22 07:59:21;;;;;;;3.03;2.70;;;20.60;41.50;;;;;;5040819;28;20189;-44
2023/03/22 08:01:47;;;;;;;3.60;2.60;;;20.50;40.70;;;;;;5043067;28;20999;-49
2023/03/22 08:04:12;;;;;;;2.63;2.03;;;20.30;41.60;;;;;;5042191;28;20476;-48
2023/03/22 08:06:39;;;;;;;2.63;2.40;;;20.30;41.50;;;;;;5044153;28;20550;-44
2023/03/22 08:09:07;;;;;;;3.53;2.47;;;20.40;41.30;;;;;;5049070;28;20214;-44
2023/03/22 08:11:33;;;;;;;5.13;2.80;;;20.60;41.30;;;;;;5048069;28;20478;-48
2023/03/22 08:13:58;;;;;;;3.83;2.90;;;20.60;40.60;;;;;;5050493;28;20471;-44
2023/03/22 08:16:24;;;;;;;4.33;2.07;;;20.50;41.30;;;;;;5050766;28;20423;-46
2023/03/22 08:18:50;;;;;;;2.53;1.73;;;20.40;39.70;;;;;;5052269;28;20278;-48
2023/03/22 08:21:15;;;;;;;2.20;1.90;;;20.50;40.30;;;;;;5038178;28;20663;-44
2023/03/22 08:23:41;;;;;;;3.93;1.93;;;20.50;39.80;;;;;;5047706;28;20204;-47
2023/03/22 08:26:08;;;;;;;1.57;1.47;;;20.60;39.70;;;;;;5042524;28;20767;-44
2023/03/22 08:28:34;;;;;;;1.93;1.50;;;20.40;39.60;;;;;;5043350;28;20205;-45
2023/03/22 08:31:00;;;;;;;3.17;1.40;;;20.10;40.20;;;;;;5040060;28;20526;-45
2023/03/22 08:33:25;;;;;;;2.60;1.83;;;20.10;40.20;;;;;;5045522;28;20199;-44
2023/03/22 08:35:51;;;;;;;1.90;1.67;;;20.10;40.70;;;;;;5042235;28;20192;-48
2023/03/22 08:38:17;;;;;;;3.57;1.70;;;20.20;40.70;;;;;;5047937;28;20257;-44
2023/03/22 08:40:46;;;;;;;1.83;1.43;;;20.20;40.30;;;;;;5041765;28;20194;-44
2023/03/22 08:43:11;;;;;;;2.50;1.63;;;20.20;40.30;;;;;;5044016;28;20706;-45
2023/03/22 08:45:37;;;;;;;2.10;1.60;;;20.30;40.80;;;;;;5046826;28;20487;-46
2023/03/22 08:48:03;;;;;;;1.97;1.33;;;20.50;40.20;;;;;;5042839;28;20228;-46
2023/03/22 08:50:28;;;;;;;1.93;1.73;;;20.50;40.00;;;;;;5047381;28;20205;-47
2023/03/22 08:52:55;;;;;;;1.83;1.63;;;20.10;39.90;;;;;;5053918;28;20197;-45
2023/03/22 08:55:20;;;;;;;1.30;1.20;;;20.10;40.70;;;;;;5052421;28;20232;-44
2023/03/22 08:57:49;;;;;;;1.57;1.47;;;20.00;40.50;;;;;;5044758;28;20447;-45
2023/03/22 09:00:17;;;;;;;2.50;1.70;;;20.10;40.70;;;;;;5035117;28;20704;-46
2023/03/22 09:02:42;;;;;;;1.80;1.37;;;20.30;40.60;;;;;;5051978;28;20601;-44
2023/03/22 09:05:08;;;;;;;1.67;1.40;;;20.20;40.50;;;;;;5050046;28;20491;-47
2023/03/22 09:07:34;;;;;;;3.10;1.80;;;20.40;43.00;;;;;;5047052;28;20229;-46
2023/03/22 09:10:00;;;;;;;1.57;1.47;;;20.40;41.70;;;;;;5047484;28;20478;-44
2023/03/22 09:12:26;;;;;;;2.30;1.47;;;20.50;40.90;;;;;;5045002;28;20234;-45
2023/03/22 09:14:52;;;;;;;3.63;2.00;;;20.80;40.80;;;;;;5048792;28;20193;-46
2023/03/22 09:17:18;;;;;;;3.10;1.80;;;21.00;40.10;;;;;;5046585;28;20492;-46
2023/03/22 09:19:46;;;;;;;2.30;1.07;;;21.10;39.70;;;;;;5046394;28;20196;-46
2023/03/22 09:22:13;;;;;;;2.13;1.50;;;21.20;39.50;;;;;;5052479;28;20431;-46
2023/03/22 09:24:39;;;;;;;1.80;1.63;;;21.00;39.60;;;;;;5050365;28;20997;-48
2023/03/22 09:27:04;;;;;;;2.70;1.33;;;21.10;39.60;;;;;;5042899;28;20440;-46
2023/03/22 09:29:30;;;;;;;1.27;1.17;;;21.20;39.40;;;;;;5051292;28;20649;-45
2023/03/22 09:31:56;;;;;;;3.00;1.40;;;21.30;39.40;;;;;;5052050;28;20199;-45
2023/03/22 09:34:21;;;;;;;1.87;1.27;;;21.40;39.40;;;;;;5045937;28;20208;-46
2023/03/22 09:36:47;;;;;;;1.40;1.30;;;21.50;39.30;;;;;;5047265;28;20201;-48
2023/03/22 09:39:15;;;;;;;1.40;1.30;;;21.60;39.00;;;;;;5052725;28;20594;-46
2023/03/22 09:41:58;;;;;;;1.50;1.33;;;21.70;38.90;;;;;;5052052;28;20555;-45
2023/03/22 09:44:32;;;;;;;1.87;1.70;;;21.90;38.40;;;;;;5047249;28;20485;-45
2023/03/22 09:47:00;;;;;;;1.50;1.40;;;21.90;38.50;;;;;;5041487;28;20812;-46
2023/03/22 09:49:34;;;;;;;1.13;1.03;;;22.10;38.40;;;;;;5043810;28;20451;-47
2023/03/22 09:52:01;;;;;;;2.17;1.57;;;22.30;37.90;;;;;;5042397;28;20462;-46
2023/03/22 09:54:39;;;;;;;1.27;1.17;;;22.40;37.80;;;;;;5049387;28;20482;-45
2023/03/22 09:57:28;;;;;;;1.40;1.30;;;22.30;37.80;;;;;;5040469;28;20446;-45
2023/03/22 10:00:19;;;;;;;2.30;2.10;;;22.40;38.20;;;;;;5052051;28;20497;-44
2023/03/22 10:02:45;;;;;;;2.70;1.40;;;22.60;38.10;;;;;;5041230;28;20478;-46
2023/03/22 10:05:35;;;;;;;1.87;1.30;;;22.80;37.50;;;;;;5049033;28;21069;-47
2023/03/22 10:08:21;;;;;;;3.87;1.43;;;22.70;37.90;;;;;;5051965;28;20192;-48
2023/03/22 10:10:46;;;;;;;2.00;1.20;;;23.00;37.80;;;;;;5046760;28;20493;-46
2023/03/22 10:13:30;;;;;;;2.63;1.40;;;23.10;37.50;;;;;;5039810;28;20818;-51
2023/03/22 10:16:00;;;;;;;1.53;1.10;;;23.30;37.20;;;;;;5038804;28;20274;-46
2023/03/22 10:18:48;;;;;;;1.40;1.30;;;23.20;36.20;;;;;;5049709;28;20822;-46
2023/03/22 10:21:16;;;;;;;3.17;1.40;;;23.40;36.20;;;;;;5037860;28;21247;-45
2023/03/22 10:23:53;;;;;;;3.27;1.13;;;23.50;36.00;;;;;;5050742;28;20427;-48
2023/03/22 10:26:33;;;;;;;2.83;1.27;;;23.70;36.00;;;;;;5045063;28;20454;-47
2023/03/22 10:29:05;;;;;;;1.83;1.43;;;23.80;35.50;;;;;;5042348;28;20443;-51
2023/03/22 10:31:33;;;;;;;2.13;1.47;;;23.80;35.70;;;;;;5042865;28;20444;-50
2023/03/22 10:34:05;;;;;;;2.07;1.50;;;24.00;36.00;;;;;;5051226;28;20514;-45
2023/03/22 10:36:34;;;;;;;2.13;1.50;;;24.10;35.80;;;;;;5048568;28;20445;-48
2023/03/22 10:39:24;;;;;;;1.50;1.40;;;24.10;35.10;;;;;;5047153;28;20447;-48
2023/03/22 10:41:52;;;;;;;1.60;1.43;;;24.20;35.10;;;;;;5047706;28;20461;-48
2023/03/22 10:44:20;;;;;;;2.07;1.20;;;24.30;34.90;;;;;;5047456;28;20470;-46
2023/03/22 10:46:49;;;;;;;1.73;1.30;;;24.30;35.40;;;;;;5044675;28;20537;-45
2023/03/22 10:49:32;;;;;;;1.60;1.50;;;24.10;34.50;;;;;;5043865;28;20525;-47
2023/03/22 10:52:17;;;;;;;1.70;1.60;;;24.30;35.30;;;;;;5045568;28;20461;-51
2023/03/22 10:54:43;;;;;;;1.20;1.10;;;24.50;35.40;;;;;;5039464;28;20911;-46
2023/03/22 10:57:08;;;;;;;1.40;1.30;;;24.60;35.00;;;;;;5046190;28;20534;-46
2023/03/22 10:59:50;;;;;;;3.60;1.40;;;24.60;34.20;;;;;;5050744;28;20603;-47
2023/03/22 11:02:24;;;;;;;0.80;0.80;;;24.40;34.20;;;;;;5040749;28;20184;-45
2023/03/22 11:04:52;;;;;;;1.37;1.27;;;24.20;34.70;;;;;;5049641;28;20494;-50
2023/03/22 11:07:30;;;;;;;1.47;1.20;;;24.40;34.60;;;;;;5048867;28;20421;-46
2023/03/22 11:10:26;;;;;;;3.80;1.23;;;24.00;34.90;;;;;;5050126;28;20866;-46
2023/03/22 11:13:12;;;;;;;2.27;1.20;;;24.20;35.40;;;;;;5040516;28;20459;-46
2023/03/22 11:15:50;;;;;;;2.80;1.10;;;24.50;35.40;;;;;;5049993;28;20576;-47
2023/03/22 11:18:16;;;;;;;2.40;1.30;;;24.80;35.20;;;;;;5049939;28;20496;-45
2023/03/22 11:21:04;;;;;;;1.97;1.10;;;24.90;34.40;;;;;;5042580;28;20452;-46
2023/03/22 11:23:34;;;;;;;3.80;1.10;;;24.80;33.80;;;;;;5044642;28;20439;-46
2023/03/22 11:26:11;;;;;;;1.20;1.10;;;24.60;34.30;;;;;;5047307;28;20486;-47
2023/03/22 11:28:49;;;;;;;1.83;1.37;;;24.80;34.30;;;;;;5050586;28;20419;-46
2023/03/22 11:31:17;;;;;;;2.10;1.00;;;24.80;34.00;;;;;;5050025;28;20447;-46
2023/03/22 11:33:58;;;;;;;1.40;1.10;;;24.90;34.60;;;;;;5041128;28;20534;-45
2023/03/22 11:36:24;;;;;;;2.03;1.40;;;25.20;33.80;;;;;;5035254;28;20504;-48
2023/03/22 11:39:04;;;;;;;1.63;1.10;;;25.20;33.50;;;;;;5035487;28;20448;-46
2023/03/22 11:41:34;;;;;;;2.53;1.37;;;25.20;33.90;;;;;;5044233;28;21000;-46
2023/03/22 11:44:04;;;;;;;1.00;1.00;;;25.20;33.20;;;;;;5042713;28;20454;-46
2023/03/22 11:46:31;;;;;;;1.80;1.40;;;25.50;33.80;;;;;;5049935;28;20446;-47
2023/03/22 11:49:00;;;;;;;1.03;0.93;;;25.70;33.10;;;;;;5044156;28;20447;-45
2023/03/22 11:51:33;;;;;;;2.97;1.03;;;25.90;32.70;;;;;;5047054;28;20443;-47
2023/03/22 11:54:28;;;;;;;1.10;1.03;;;26.00;32.90;;;;;;5039416;28;20447;-50
2023/03/22 11:56:57;;;;;;;3.83;1.30;;;26.20;33.30;;;;;;5043382;28;20447;-45
2023/03/22 11:59:54;;;;;;;1.17;1.00;;;26.40;33.50;;;;;;5046381;28;20523;-48
2023/03/22 12:02:27;;;;;;;1.53;1.00;;;26.30;31.60;;;;;;5012437;28;21860;-47
2023/03/22 12:05:01;;;;;;;1.20;0.90;;;26.00;31.10;;;;;;5035586;28;20480;-48
2023/03/22 12:07:30;;;;;;;0.80;0.80;;;25.70;30.40;;;;;;5045927;28;20444;-45
2023/03/22 12:10:23;;;;;;;0.80;0.73;;;25.30;29.90;;;;;;5032331;28;20945;-48
2023/03/22 12:12:58;;;;;;;1.07;0.90;;;24.80;30.30;;;;;;5045848;28;20435;-50
2023/03/22 12:15:32;;;;;;;1.60;1.10;;;24.60;30.60;;;;;;5041812;28;20462;-46
2023/03/22 12:18:14;;;;;;;1.27;1.17;;;24.50;30.90;;;;;;5037666;28;20446;-45
2023/03/22 12:20:52;;;;;;;1.80;1.60;;;23.90;34.20;;;;;;5044102;28;20592;-50
2023/03/22 12:23:27;;;;;;;1.30;1.20;;;24.30;35.00;;;;;;5041651;28;20451;-49
2023/03/22 12:26:16;;;;;;;1.23;1.13;;;24.80;34.40;;;;;;5042788;28;20514;-49
2023/03/22 12:29:13;;;;;;;1.47;1.20;;;25.20;34.80;;;;;;5043521;28;20450;-51
2023/03/22 12:31:50;;;;;;;1.90;1.00;;;25.50;34.80;;;;;;5041664;28;20507;-51
2023/03/22 12:34:19;;;;;;;1.67;1.57;;;25.80;34.30;;;;;;5045790;28;20835;-48
2023/03/22 12:36:53;;;;;;;1.43;1.33;;;26.00;34.00;;;;;;5044166;28;20516;-49
2023/03/22 12:39:28;;;;;;;1.70;1.60;;;26.20;33.60;;;;;;5038663;28;20529;-46
2023/03/22 12:42:00;;;;;;;2.20;1.50;;;26.30;33.20;;;;;;5037387;28;20447;-46
2023/03/22 12:44:35;;;;;;;1.47;1.37;;;26.30;33.70;;;;;;5047129;28;20478;-47
2023/03/22 12:47:05;;;;;;;1.87;1.30;;;26.40;34.40;;;;;;5051561;28;20457;-51
2023/03/22 12:49:42;;;;;;;1.40;1.30;;;26.40;34.30;;;;;;5044278;28;20513;-48
2023/03/22 12:52:16;;;;;;;1.33;1.17;;;26.60;34.20;;;;;;5048054;28;20450;-47
2023/03/22 12:54:43;;;;;;;3.03;1.47;;;26.60;33.10;;;;;;5043881;28;20489;-48
2023/03/22 12:57:10;;;;;;;1.70;1.30;;;26.60;33.20;;;;;;5040143;28;20952;-47
2023/03/22 12:59:36;;;;;;;1.50;1.23;;;26.60;32.90;;;;;;5044597;28;20447;-49
2023/03/22 13:02:18;;;;;;;1.77;1.67;;;26.80;33.10;;;;;;5039900;28;20459;-50
2023/03/22 13:04:44;;;;;;;3.17;1.67;;;26.80;33.00;;;;;;5042948;28;20481;-46